Time;durP1;ratioP1;P1;durP2;ratioP2;P2;SDS_P1;SDS_P2;PMS_P1;PMS_P2;Temp;Humidity;BMP_temperature;BMP_pressure;BME280_temperature;BME280_humidity;BME280_pressure;Samples;Min_cycle;Max_cycle;Signal;HPM_P1;HPM_P2
2020/12/07 00:01:01;;;;;;;9.93;7.40;;;7.30;99.90;;;;;;5132818;27;20259;-71
2020/12/07 00:03:27;;;;;;;9.13;7.05;;;7.30;99.90;;;;;;5110594;28;20200;-71
2020/12/07 00:05:53;;;;;;;12.82;7.50;;;7.30;99.90;;;;;;5116725;28;20201;-71
2020/12/07 00:08:19;;;;;;;9.90;7.30;;;7.30;99.90;;;;;;5125731;28;20203;-71
2020/12/07 00:10:46;;;;;;;10.00;7.97;;;7.40;99.90;;;;;;5112098;28;20193;-71
2020/12/07 00:13:12;;;;;;;9.32;7.03;;;7.40;99.90;;;;;;5127696;28;20192;-71
2020/12/07 00:15:39;;;;;;;10.85;7.70;;;7.30;99.90;;;;;;5131498;27;20192;-71
2020/12/07 00:18:05;;;;;;;9.70;7.53;;;7.30;99.90;;;;;;5118594;27;20200;-72
2020/12/07 00:20:31;;;;;;;11.15;8.70;;;7.30;99.90;;;;;;5131724;28;20216;-71
2020/12/07 00:22:58;;;;;;;9.20;8.20;;;7.30;99.90;;;;;;5131775;27;20184;-72
2020/12/07 00:25:24;;;;;;;10.25;9.15;;;7.40;99.90;;;;;;5122172;27;20196;-72
2020/12/07 00:27:50;;;;;;;8.50;7.20;;;7.40;99.90;;;;;;5122149;28;20660;-71
2020/12/07 00:30:16;;;;;;;11.82;9.77;;;7.30;99.90;;;;;;5115394;27;20204;-71
2020/12/07 00:32:44;;;;;;;9.60;8.20;;;7.30;99.90;;;;;;5111744;28;20189;-71
2020/12/07 00:35:10;;;;;;;10.07;7.72;;;7.30;99.90;;;;;;5111834;28;20211;-71
2020/12/07 00:37:36;;;;;;;10.48;7.85;;;7.30;99.90;;;;;;5112116;28;20211;-71
2020/12/07 00:40:03;;;;;;;9.63;8.55;;;7.30;99.90;;;;;;5126732;28;20221;-71
2020/12/07 00:42:30;;;;;;;9.43;7.78;;;7.30;99.90;;;;;;5124148;27;20624;-71
2020/12/07 00:44:56;;;;;;;9.30;7.43;;;7.30;99.90;;;;;;5111938;28;20532;-71
2020/12/07 00:47:22;;;;;;;9.07;8.00;;;7.30;99.90;;;;;;5127760;28;20815;-71
2020/12/07 00:49:49;;;;;;;10.65;8.52;;;7.30;99.90;;;;;;5130830;27;20201;-71
2020/12/07 00:52:15;;;;;;;11.98;8.52;;;7.30;99.90;;;;;;5128367;27;20527;-71
2020/12/07 00:54:42;;;;;;;7.03;6.30;;;7.30;99.90;;;;;;5134118;27;20642;-71
2020/12/07 00:57:08;;;;;;;9.30;7.60;;;7.30;99.90;;;;;;5131943;27;20195;-71
2020/12/07 00:59:34;;;;;;;11.00;6.90;;;7.30;99.90;;;;;;5123981;27;20246;-71
2020/12/07 01:02:01;;;;;;;10.75;8.25;;;7.30;99.90;;;;;;5116609;27;20192;-71
2020/12/07 01:04:27;;;;;;;8.18;6.70;;;7.30;99.90;;;;;;5117199;27;20195;-71
2020/12/07 01:06:54;;;;;;;11.70;8.80;;;7.40;99.90;;;;;;5118426;27;20201;-71
2020/12/07 01:09:22;;;;;;;9.75;7.60;;;7.30;99.90;;;;;;5123453;27;20631;-71
2020/12/07 01:11:54;;;;;;;9.65;6.95;;;7.30;99.90;;;;;;5122792;27;20616;-71
2020/12/07 01:14:21;;;;;;;10.52;7.57;;;7.30;99.90;;;;;;5129048;27;20193;-71
2020/12/07 01:16:48;;;;;;;9.00;7.50;;;7.40;99.90;;;;;;5114901;27;20254;-71
2020/12/07 01:19:14;;;;;;;9.90;7.40;;;7.30;99.90;;;;;;5122155;27;20550;-71
2020/12/07 01:21:40;;;;;;;9.60;7.93;;;7.30;99.90;;;;;;5134970;27;20219;-71
2020/12/07 01:24:08;;;;;;;14.02;9.50;;;7.30;99.90;;;;;;5128571;27;20533;-71
2020/12/07 01:26:34;;;;;;;12.38;9.02;;;7.30;99.90;;;;;;5114846;28;20196;-71
2020/12/07 01:29:01;;;;;;;11.07;7.90;;;7.30;99.90;;;;;;5127761;27;20210;-71
2020/12/07 01:31:28;;;;;;;8.85;7.80;;;7.40;99.90;;;;;;5119414;27;20208;-71
2020/12/07 01:33:54;;;;;;;9.95;7.60;;;7.40;99.90;;;;;;5132211;27;20192;-71
2020/12/07 01:36:20;;;;;;;10.55;8.43;;;7.30;99.90;;;;;;5133319;27;20196;-71
2020/12/07 01:38:47;;;;;;;9.70;7.60;;;7.30;99.90;;;;;;5117364;27;20234;-71
2020/12/07 01:41:14;;;;;;;10.20;8.93;;;7.30;99.90;;;;;;5119699;27;20228;-71
2020/12/07 01:43:40;;;;;;;8.82;7.45;;;7.30;99.90;;;;;;5114996;27;20196;-71
2020/12/07 01:46:07;;;;;;;11.02;7.40;;;7.30;99.90;;;;;;5125599;27;20207;-71
2020/12/07 01:48:34;;;;;;;12.73;8.07;;;7.30;99.90;;;;;;5115238;27;20193;-71
2020/12/07 01:51:01;;;;;;;11.45;8.55;;;7.30;99.90;;;;;;5134882;27;20207;-71
2020/12/07 01:53:27;;;;;;;8.90;7.10;;;7.30;99.90;;;;;;5118869;27;20591;-71
2020/12/07 01:55:54;;;;;;;9.40;8.15;;;7.30;99.90;;;;;;5114256;27;20193;-71
2020/12/07 01:58:21;;;;;;;9.40;7.78;;;7.30;99.90;;;;;;5126729;27;20192;-73
2020/12/07 02:00:48;;;;;;;7.80;7.05;;;7.30;99.90;;;;;;5114885;27;20321;-72
2020/12/07 02:03:14;;;;;;;11.35;7.90;;;7.30;99.90;;;;;;5115604;27;20524;-72
2020/12/07 02:05:41;;;;;;;7.90;7.05;;;7.30;99.90;;;;;;5125524;27;20192;-72
2020/12/07 02:08:12;;;;;;;11.95;7.80;;;7.30;99.90;;;;;;5124054;27;20679;-71
2020/12/07 02:10:38;;;;;;;11.05;7.65;;;7.20;99.90;;;;;;5113833;27;20193;-74
2020/12/07 02:13:04;;;;;;;10.55;7.70;;;7.30;99.90;;;;;;5125277;27;20188;-72
2020/12/07 02:15:32;;;;;;;10.75;7.78;;;7.30;99.90;;;;;;5134611;27;20252;-71
2020/12/07 02:17:58;;;;;;;9.32;7.80;;;7.30;99.90;;;;;;5115173;27;20201;-71
2020/12/07 02:20:25;;;;;;;9.82;7.45;;;7.30;99.90;;;;;;5114493;27;20322;-71
2020/12/07 02:22:52;;;;;;;9.48;7.47;;;7.30;99.90;;;;;;5113879;27;20188;-71
2020/12/07 02:25:19;;;;;;;11.88;7.45;;;7.30;99.90;;;;;;5113588;27;20204;-71
2020/12/07 02:27:48;;;;;;;9.38;7.93;;;7.40;99.90;;;;;;5114097;28;20193;-71
2020/12/07 02:30:15;;;;;;;10.38;7.80;;;7.40;99.90;;;;;;5127190;27;20195;-70
2020/12/07 02:32:42;;;;;;;10.38;7.68;;;7.30;99.90;;;;;;5132879;27;20561;-70
2020/12/07 02:35:08;;;;;;;10.93;8.52;;;7.40;99.90;;;;;;5125217;27;20193;-70
2020/12/07 02:37:35;;;;;;;13.73;8.32;;;7.30;99.90;;;;;;5113606;28;20235;-70
2020/12/07 02:40:04;;;;;;;9.07;7.47;;;7.30;99.90;;;;;;5113654;27;20236;-70
2020/12/07 02:42:33;;;;;;;10.20;7.90;;;7.30;99.90;;;;;;5118451;27;20565;-70
2020/12/07 02:45:00;;;;;;;13.07;8.55;;;7.30;99.90;;;;;;5132959;27;20265;-70
2020/12/07 02:47:26;;;;;;;8.38;6.82;;;7.30;99.90;;;;;;5118091;27;20188;-72
2020/12/07 02:49:54;;;;;;;8.55;7.28;;;7.30;99.90;;;;;;5118160;27;20321;-71
2020/12/07 02:52:23;;;;;;;8.10;6.68;;;7.30;99.90;;;;;;5116430;27;20695;-70
2020/12/07 02:54:54;;;;;;;8.50;7.22;;;7.30;99.90;;;;;;5132721;27;20200;-71
2020/12/07 02:57:20;;;;;;;8.65;7.30;;;7.30;99.90;;;;;;5132328;27;20176;-71
2020/12/07 02:59:47;;;;;;;7.97;6.93;;;7.30;99.90;;;;;;5133568;27;20227;-73
2020/12/07 03:02:13;;;;;;;7.75;6.35;;;7.30;99.90;;;;;;5130035;27;20203;-72
2020/12/07 03:04:40;;;;;;;7.63;6.43;;;7.30;99.90;;;;;;5116613;27;20196;-73
2020/12/07 03:07:06;;;;;;;9.55;6.97;;;7.30;99.90;;;;;;5115359;27;20192;-72
2020/12/07 03:09:32;;;;;;;9.07;6.78;;;7.30;99.90;;;;;;5130408;27;20192;-72
2020/12/07 03:12:00;;;;;;;8.80;7.05;;;7.30;99.90;;;;;;5117695;27;20205;-72
2020/12/07 03:14:26;;;;;;;11.32;7.40;;;7.30;99.90;;;;;;5112728;28;20204;-72
2020/12/07 03:16:53;;;;;;;7.43;6.20;;;7.30;99.90;;;;;;5111172;27;20263;-71
2020/12/07 03:19:19;;;;;;;6.25;5.60;;;7.30;99.90;;;;;;5129474;27;20214;-72
2020/12/07 03:21:45;;;;;;;8.95;6.88;;;7.30;99.90;;;;;;5129020;27;20223;-71
2020/12/07 03:24:12;;;;;;;7.55;6.30;;;7.30;99.90;;;;;;5112666;28;20197;-71
2020/12/07 03:26:38;;;;;;;8.55;6.20;;;7.30;99.90;;;;;;5120984;27;20192;-71
2020/12/07 03:29:06;;;;;;;8.75;6.03;;;7.30;99.90;;;;;;5117073;27;20197;-72
2020/12/07 03:31:34;;;;;;;7.93;7.00;;;7.30;99.90;;;;;;5112614;28;20197;-71
2020/12/07 03:34:01;;;;;;;11.05;7.15;;;7.40;99.90;;;;;;5115725;27;20196;-71
2020/12/07 03:36:27;;;;;;;6.80;5.38;;;7.30;99.90;;;;;;5118375;27;20188;-71
2020/12/07 03:38:54;;;;;;;6.82;6.10;;;7.30;99.90;;;;;;5128399;27;20231;-71
2020/12/07 03:41:20;;;;;;;7.70;5.63;;;7.30;99.90;;;;;;5112676;28;20217;-72
2020/12/07 03:43:47;;;;;;;11.07;5.80;;;7.30;99.90;;;;;;5126460;27;20195;-72
2020/12/07 03:46:14;;;;;;;5.95;5.35;;;7.30;99.90;;;;;;5128902;27;20193;-71
2020/12/07 03:48:41;;;;;;;8.82;6.57;;;7.30;99.90;;;;;;5121290;28;20201;-72
2020/12/07 03:51:07;;;;;;;8.43;6.65;;;7.30;99.90;;;;;;5112353;28;20197;-72
2020/12/07 03:53:35;;;;;;;7.55;5.40;;;7.30;99.90;;;;;;5123759;28;20647;-71
2020/12/07 03:56:03;;;;;;;6.63;5.65;;;7.30;99.90;;;;;;5116842;27;20575;-71
2020/12/07 03:58:29;;;;;;;9.90;6.80;;;7.30;99.90;;;;;;5112385;28;20193;-71
2020/12/07 04:00:56;;;;;;;8.32;6.18;;;7.30;99.90;;;;;;5112568;28;20216;-72
2020/12/07 04:03:24;;;;;;;9.15;5.70;;;7.30;99.90;;;;;;5113147;28;20199;-71
2020/12/07 04:05:55;;;;;;;8.88;6.00;;;7.30;99.90;;;;;;5112212;28;20197;-71
2020/12/07 04:08:21;;;;;;;6.47;5.80;;;7.30;99.90;;;;;;5111780;28;20226;-71
2020/12/07 04:10:48;;;;;;;6.72;5.18;;;7.30;99.90;;;;;;5112153;28;20203;-71
2020/12/07 04:13:14;;;;;;;7.00;5.45;;;7.30;99.90;;;;;;5114064;28;20195;-71
2020/12/07 04:15:40;;;;;;;7.97;6.05;;;7.30;99.90;;;;;;5119557;28;20189;-71
2020/12/07 04:18:06;;;;;;;6.05;5.45;;;7.30;99.90;;;;;;5117714;28;20200;-71
2020/12/07 04:20:33;;;;;;;6.72;4.82;;;7.30;99.90;;;;;;5132637;27;20222;-71
2020/12/07 04:23:00;;;;;;;7.13;5.82;;;7.30;99.90;;;;;;5129928;27;20200;-71
2020/12/07 04:25:26;;;;;;;5.15;4.75;;;7.40;99.90;;;;;;5131458;27;20200;-71
2020/12/07 04:27:53;;;;;;;5.70;4.90;;;7.40;99.90;;;;;;5124086;27;20188;-71
2020/12/07 04:30:19;;;;;;;7.50;5.07;;;7.30;99.90;;;;;;5134032;27;20281;-72
2020/12/07 04:32:45;;;;;;;5.47;4.78;;;7.30;99.90;;;;;;5116285;27;20591;-71
2020/12/07 04:35:11;;;;;;;7.20;5.55;;;7.30;99.90;;;;;;5135682;27;20198;-72
2020/12/07 04:37:38;;;;;;;5.50;4.38;;;7.30;99.90;;;;;;5134587;27;20229;-72
2020/12/07 04:40:05;;;;;;;4.82;4.20;;;7.30;99.90;;;;;;5129754;27;20224;-72
2020/12/07 04:42:32;;;;;;;6.05;4.43;;;7.30;99.90;;;;;;5115817;27;20203;-72
2020/12/07 04:44:58;;;;;;;5.03;4.25;;;7.30;99.90;;;;;;5117023;27;20193;-72
2020/12/07 04:47:25;;;;;;;5.43;4.40;;;7.30;99.90;;;;;;5132327;27;20196;-72
2020/12/07 04:49:53;;;;;;;5.15;4.65;;;7.30;99.90;;;;;;5115595;27;20226;-72
2020/12/07 04:52:20;;;;;;;9.05;4.82;;;7.30;99.90;;;;;;5121429;27;20196;-72
2020/12/07 04:54:49;;;;;;;4.28;3.58;;;7.30;99.90;;;;;;5115861;27;20193;-71
2020/12/07 04:57:16;;;;;;;5.03;4.55;;;7.30;99.90;;;;;;5115277;27;20625;-70
2020/12/07 04:59:43;;;;;;;7.60;5.03;;;7.30;99.90;;;;;;5115353;28;20688;-71
2020/12/07 05:02:10;;;;;;;4.53;4.03;;;7.30;99.90;;;;;;5122724;27;20192;-72
2020/12/07 05:04:37;;;;;;;5.00;4.50;;;7.30;99.90;;;;;;5125966;27;20192;-72
2020/12/07 05:07:04;;;;;;;6.10;4.97;;;7.30;99.90;;;;;;5123453;27;20195;-72
2020/12/07 05:09:31;;;;;;;5.18;4.10;;;7.30;99.90;;;;;;5115206;28;20201;-73
2020/12/07 05:12:02;;;;;;;4.07;3.67;;;7.30;99.90;;;;;;5115112;27;20188;-72
2020/12/07 05:14:29;;;;;;;5.55;4.45;;;7.30;99.90;;;;;;5126895;27;20275;-72
2020/12/07 05:16:55;;;;;;;5.60;4.53;;;7.30;99.90;;;;;;5114101;28;20196;-72
2020/12/07 05:19:22;;;;;;;4.57;4.18;;;7.30;99.90;;;;;;5114217;28;20199;-73
2020/12/07 05:21:49;;;;;;;7.05;5.80;;;7.30;99.90;;;;;;5114918;28;20216;-72
2020/12/07 05:24:15;;;;;;;5.53;4.47;;;7.30;99.90;;;;;;5114264;27;20204;-73
2020/12/07 05:26:42;;;;;;;4.00;3.53;;;7.30;99.90;;;;;;5114411;28;20193;-72
2020/12/07 05:29:13;;;;;;;4.60;4.22;;;7.30;99.90;;;;;;5114732;28;20193;-72
2020/12/07 05:31:39;;;;;;;5.20;4.40;;;7.30;99.90;;;;;;5114907;28;20189;-72
2020/12/07 05:34:06;;;;;;;4.88;3.50;;;7.30;99.90;;;;;;5114561;28;20196;-72
2020/12/07 05:36:32;;;;;;;5.45;4.15;;;7.30;99.90;;;;;;5118838;27;20196;-72
2020/12/07 05:38:58;;;;;;;4.88;4.38;;;7.30;99.90;;;;;;5127317;27;20227;-71
2020/12/07 05:41:29;;;;;;;4.80;4.22;;;7.30;99.90;;;;;;5131172;27;20219;-72
2020/12/07 05:43:55;;;;;;;4.90;4.30;;;7.30;99.90;;;;;;5115014;28;20197;-71
2020/12/07 05:46:26;;;;;;;5.05;4.55;;;7.30;99.90;;;;;;5116517;27;20196;-72
2020/12/07 05:48:53;;;;;;;4.32;3.72;;;7.30;99.90;;;;;;5134849;27;20208;-72
2020/12/07 05:51:27;;;;;;;4.85;4.35;;;7.30;99.90;;;;;;5134879;27;20532;-72
2020/12/07 05:53:54;;;;;;;5.90;5.22;;;7.30;99.90;;;;;;5114824;27;20638;-72
2020/12/07 05:56:20;;;;;;;5.65;4.43;;;7.40;99.90;;;;;;5117378;27;20193;-71
2020/12/07 05:58:57;;;;;;;5.78;4.75;;;7.40;99.90;;;;;;5135091;27;20219;-72
2020/12/07 06:01:27;;;;;;;5.90;4.50;;;7.30;99.90;;;;;;5134694;27;20200;-71
2020/12/07 06:03:55;;;;;;;4.90;4.45;;;7.30;99.90;;;;;;5132689;27;20263;-71
2020/12/07 06:06:30;;;;;;;5.72;4.80;;;7.40;99.90;;;;;;5129742;27;20205;-72
2020/12/07 06:08:59;;;;;;;5.93;4.85;;;7.40;99.90;;;;;;5113024;27;20200;-71
2020/12/07 06:11:26;;;;;;;4.93;4.53;;;7.40;99.90;;;;;;5113826;28;20200;-72
2020/12/07 06:13:53;;;;;;;5.93;5.32;;;7.30;99.90;;;;;;5112727;27;20208;-72
2020/12/07 06:16:19;;;;;;;4.95;4.45;;;7.30;99.90;;;;;;5114198;27;20612;-73
2020/12/07 06:18:46;;;;;;;5.43;4.70;;;7.40;99.90;;;;;;5118968;27;20199;-73
2020/12/07 06:21:17;;;;;;;5.47;4.93;;;7.30;99.90;;;;;;5134119;27;20699;-73
2020/12/07 06:23:44;;;;;;;5.78;5.28;;;7.30;99.90;;;;;;5115560;27;20321;-73
2020/12/07 06:26:12;;;;;;;5.68;4.60;;;7.30;99.90;;;;;;5113900;27;20193;-73
2020/12/07 06:28:40;;;;;;;6.13;5.05;;;7.30;99.90;;;;;;5119360;27;20189;-72
2020/12/07 06:31:08;;;;;;;7.95;6.20;;;7.30;99.90;;;;;;5116202;27;20197;-73
2020/12/07 06:33:43;;;;;;;7.45;5.47;;;7.30;99.90;;;;;;5134167;27;20200;-72
2020/12/07 06:36:31;;;;;;;9.32;6.32;;;7.30;99.90;;;;;;5133792;27;20235;-72
2020/12/07 06:38:59;;;;;;;7.28;6.00;;;7.40;99.90;;;;;;5125674;27;20224;-71
2020/12/07 06:41:37;;;;;;;7.43;6.70;;;7.40;99.90;;;;;;5113115;28;20316;-72
2020/12/07 06:44:07;;;;;;;7.57;6.53;;;7.40;99.90;;;;;;5113513;27;20272;-71
2020/12/07 06:46:57;;;;;;;6.15;4.90;;;7.40;99.90;;;;;;5118968;27;20196;-71
2020/12/07 06:49:31;;;;;;;6.85;5.82;;;7.30;99.90;;;;;;5119772;27;20196;-71
2020/12/07 06:52:06;;;;;;;6.53;5.80;;;7.30;99.90;;;;;;5132549;27;20204;-71
2020/12/07 06:57:27;;;;;;;7.70;6.93;;;7.20;99.90;;;;;;5114816;27;20200;-71
2020/12/07 06:59:56;;;;;;;6.30;5.63;;;7.20;99.90;;;;;;5127405;27;20225;-72
2020/12/07 07:02:22;;;;;;;8.75;7.07;;;7.30;99.90;;;;;;5112884;28;20196;-71
2020/12/07 07:04:52;;;;;;;8.68;7.72;;;7.30;99.90;;;;;;5117426;27;20202;-71
2020/12/07 07:07:22;;;;;;;7.25;6.55;;;7.30;99.90;;;;;;5120894;27;20189;-71
2020/12/07 07:09:49;;;;;;;9.07;6.72;;;7.30;99.90;;;;;;5112496;27;20189;-71
2020/12/07 07:12:15;;;;;;;8.63;7.75;;;7.40;99.90;;;;;;5112896;28;20687;-71
2020/12/07 07:14:42;;;;;;;8.95;7.25;;;7.40;99.90;;;;;;5112586;28;20201;-71
2020/12/07 07:17:09;;;;;;;8.80;8.00;;;7.30;99.90;;;;;;5121831;27;20627;-71
2020/12/07 07:19:36;;;;;;;7.07;6.38;;;7.30;99.90;;;;;;5114319;27;20228;-71
2020/12/07 07:22:03;;;;;;;9.63;7.32;;;7.30;99.90;;;;;;5116862;27;20216;-71
2020/12/07 07:24:37;;;;;;;8.57;7.20;;;7.30;99.90;;;;;;5131810;27;20196;-71
2020/12/07 07:27:55;;;;;;;7.90;7.10;;;7.30;99.90;;;;;;5123649;27;20196;-71
2020/12/07 07:29:51;;;;;;;9.07;6.22;;;7.30;99.90;;;;;;5112137;28;20230;-71
2020/12/07 07:32:18;;;;;;;8.17;7.40;;;7.30;99.90;;;;;;5113884;27;20197;-70
2020/12/07 07:34:46;;;;;;;8.52;7.18;;;7.30;99.90;;;;;;5133133;27;20631;-71
2020/12/07 07:37:13;;;;;;;9.75;8.50;;;7.30;99.90;;;;;;5121329;27;20636;-71
2020/12/07 07:39:40;;;;;;;8.10;7.30;;;7.20;99.90;;;;;;5129249;27;20228;-71
2020/12/07 07:42:09;;;;;;;8.23;7.38;;;7.30;99.90;;;;;;5132572;27;20211;-71
2020/12/07 07:44:37;;;;;;;8.18;7.32;;;7.30;99.90;;;;;;5119913;27;20253;-71
2020/12/07 07:47:07;;;;;;;10.65;8.32;;;7.30;99.90;;;;;;5113182;28;20196;-71
2020/12/07 07:50:07;;;;;;;9.45;6.45;;;7.30;99.90;;;;;;5129151;27;20237;-70
2020/12/07 08:15:47;;;;;;;10.55;7.55;;;7.30;99.90;;;;;;5108006;27;20196;-73
2020/12/07 08:18:18;;;;;;;7.70;6.75;;;7.20;99.90;;;;;;5122504;27;20199;-72
2020/12/07 08:20:52;;;;;;;8.57;7.68;;;7.30;99.90;;;;;;5133346;27;20212;-73
2020/12/07 08:23:27;;;;;;;8.13;6.57;;;7.20;99.90;;;;;;5135695;27;20644;-73
2020/12/07 08:25:54;;;;;;;10.18;8.55;;;7.20;99.90;;;;;;5130998;27;20749;-73
2020/12/07 08:28:24;;;;;;;8.45;7.30;;;7.30;99.90;;;;;;5122939;27;20202;-72
2020/12/07 08:31:16;;;;;;;9.25;7.68;;;7.20;99.90;;;;;;5134218;27;20176;-73
2020/12/07 08:33:55;;;;;;;9.10;8.02;;;7.30;99.90;;;;;;5100943;27;20205;-73
2020/12/07 08:36:21;;;;;;;9.77;7.13;;;7.30;99.90;;;;;;5123893;27;20188;-73
2020/12/07 08:38:48;;;;;;;8.23;7.45;;;7.30;99.90;;;;;;5125254;27;20229;-73
2020/12/07 08:41:16;;;;;;;8.85;7.57;;;7.30;99.90;;;;;;5117007;27;20226;-72
2020/12/07 08:43:45;;;;;;;9.40;7.88;;;7.30;99.90;;;;;;5115739;27;20568;-73
2020/12/07 08:46:13;;;;;;;10.30;8.88;;;7.30;99.90;;;;;;5121979;27;20189;-72
2020/12/07 08:48:40;;;;;;;10.05;8.07;;;7.30;99.90;;;;;;5127947;27;20571;-72
2020/12/07 08:51:08;;;;;;;10.23;7.72;;;7.30;99.90;;;;;;5115507;28;20231;-73
2020/12/07 08:53:34;;;;;;;10.15;8.77;;;7.30;99.90;;;;;;5129309;27;20207;-73
2020/12/07 08:56:03;;;;;;;10.10;8.80;;;7.30;99.90;;;;;;5130942;27;20196;-73
2020/12/07 08:58:30;;;;;;;11.57;8.45;;;7.30;99.90;;;;;;5135954;27;20636;-73
2020/12/07 09:00:59;;;;;;;8.90;8.00;;;7.30;99.90;;;;;;5135338;27;20570;-73
2020/12/07 09:03:25;;;;;;;9.63;8.27;;;7.30;99.90;;;;;;5122903;27;20197;-73
2020/12/07 09:05:52;;;;;;;9.98;8.98;;;7.30;99.90;;;;;;5128709;27;20206;-73
2020/12/07 09:08:18;;;;;;;9.70;8.70;;;7.30;99.90;;;;;;5115889;27;20192;-73
2020/12/07 09:10:44;;;;;;;9.98;8.40;;;7.40;99.90;;;;;;5115216;27;20712;-73
2020/12/07 09:13:10;;;;;;;8.63;7.63;;;7.30;99.90;;;;;;5116256;27;20196;-73
2020/12/07 09:15:37;;;;;;;11.32;8.80;;;7.30;99.90;;;;;;5113869;27;20193;-73
2020/12/07 09:18:04;;;;;;;11.30;9.30;;;7.30;99.90;;;;;;5122310;27;20189;-73
2020/12/07 09:20:30;;;;;;;9.23;8.30;;;7.30;99.90;;;;;;5132118;27;20193;-72
2020/12/07 09:22:56;;;;;;;10.95;8.30;;;7.40;99.90;;;;;;5134504;27;20188;-72
2020/12/07 09:25:22;;;;;;;8.18;7.28;;;7.30;99.90;;;;;;5128870;27;20200;-72
2020/12/07 09:27:49;;;;;;;9.70;7.97;;;7.40;99.90;;;;;;5122001;27;20531;-72
2020/12/07 09:30:15;;;;;;;9.93;8.90;;;7.40;99.90;;;;;;5135399;27;20206;-77
2020/12/07 09:32:41;;;;;;;11.73;9.80;;;7.30;99.90;;;;;;5128880;27;20207;-72
2020/12/07 09:35:08;;;;;;;11.05;8.82;;;7.30;99.90;;;;;;5114932;28;20203;-74
2020/12/07 09:37:36;;;;;;;10.35;9.25;;;7.30;99.90;;;;;;5119295;27;20522;-72
2020/12/07 09:40:03;;;;;;;13.38;10.30;;;7.30;99.90;;;;;;5132068;27;20228;-72
2020/12/07 09:42:29;;;;;;;11.40;8.57;;;7.40;99.90;;;;;;5121827;27;20215;-72
2020/12/07 09:44:55;;;;;;;9.60;8.45;;;7.40;99.90;;;;;;5134687;27;20627;-72
2020/12/07 09:47:22;;;;;;;9.80;7.35;;;7.40;99.90;;;;;;5124724;27;20199;-72
2020/12/07 09:49:48;;;;;;;11.40;8.15;;;7.30;99.90;;;;;;5133880;27;20509;-72
2020/12/07 09:52:15;;;;;;;11.80;7.28;;;7.40;99.90;;;;;;5117541;27;20189;-72
2020/12/07 09:54:41;;;;;;;10.65;8.13;;;7.40;99.90;;;;;;5114655;27;20227;-71
2020/12/07 09:57:08;;;;;;;9.30;7.72;;;7.30;99.90;;;;;;5113231;28;20204;-71
2020/12/07 09:59:35;;;;;;;11.88;8.32;;;7.30;99.90;;;;;;5113857;28;20201;-73
2020/12/07 10:02:02;;;;;;;9.10;7.75;;;7.30;99.90;;;;;;5113376;28;20687;-74
2020/12/07 10:04:28;;;;;;;9.07;7.93;;;7.40;99.90;;;;;;5115190;27;20289;-73
2020/12/07 10:06:55;;;;;;;11.73;8.07;;;7.30;99.90;;;;;;5130201;27;20196;-73
2020/12/07 10:09:22;;;;;;;9.52;7.03;;;7.30;99.90;;;;;;5114227;28;20223;-75
2020/12/07 10:11:49;;;;;;;10.45;7.43;;;7.40;99.90;;;;;;5113919;27;20195;-74
2020/12/07 10:14:15;;;;;;;10.57;7.32;;;7.40;99.90;;;;;;5126675;27;20191;-74
2020/12/07 10:16:43;;;;;;;9.32;7.53;;;7.30;99.90;;;;;;5122280;27;20207;-74
2020/12/07 10:19:10;;;;;;;8.68;7.57;;;7.30;99.90;;;;;;5134347;27;20206;-74
2020/12/07 10:21:36;;;;;;;7.93;6.70;;;7.40;99.90;;;;;;5134030;27;20211;-74
2020/12/07 10:24:03;;;;;;;8.90;6.68;;;7.40;99.90;;;;;;5124596;27;20192;-74
2020/12/07 10:26:30;;;;;;;8.07;7.00;;;7.40;99.90;;;;;;5113201;28;20193;-73
2020/12/07 10:28:57;;;;;;;9.00;6.45;;;7.40;99.90;;;;;;5113876;28;20204;-74
2020/12/07 10:31:24;;;;;;;9.38;6.88;;;7.50;99.90;;;;;;5113535;27;20205;-72
2020/12/07 10:33:51;;;;;;;8.68;6.32;;;7.40;99.90;;;;;;5128529;27;20202;-74
2020/12/07 10:36:18;;;;;;;8.73;5.97;;;7.40;99.90;;;;;;5133865;27;20192;-73
2020/12/07 10:38:45;;;;;;;6.55;5.88;;;7.40;99.90;;;;;;5122501;27;20224;-73
2020/12/07 10:41:13;;;;;;;7.22;5.40;;;7.40;99.90;;;;;;5114423;27;20220;-73
2020/12/07 10:43:41;;;;;;;8.32;6.07;;;7.30;99.90;;;;;;5121500;27;20214;-73
2020/12/07 10:46:07;;;;;;;7.05;6.00;;;7.40;99.90;;;;;;5133629;27;20210;-73
2020/12/07 10:48:34;;;;;;;8.05;5.85;;;7.30;99.90;;;;;;5113429;28;20197;-72
2020/12/07 10:51:00;;;;;;;5.45;4.70;;;7.40;99.90;;;;;;5119184;27;20188;-75
2020/12/07 10:53:26;;;;;;;8.55;6.60;;;7.40;99.90;;;;;;5134639;27;20207;-75
2020/12/07 10:55:53;;;;;;;8.90;6.15;;;7.40;99.90;;;;;;5114955;28;20292;-72
2020/12/07 10:58:19;;;;;;;6.32;5.55;;;7.40;99.90;;;;;;5113372;28;20277;-75
2020/12/07 11:00:47;;;;;;;5.43;4.90;;;7.30;99.90;;;;;;5117271;27;20216;-75
2020/12/07 11:03:13;;;;;;;6.53;5.25;;;7.30;99.90;;;;;;5122364;27;20196;-72
2020/12/07 11:05:40;;;;;;;6.32;5.60;;;7.40;99.90;;;;;;5128162;27;20196;-73
2020/12/07 11:08:12;;;;;;;6.75;6.05;;;7.40;99.90;;;;;;5133375;27;20215;-78
2020/12/07 11:10:39;;;;;;;5.82;5.20;;;7.40;99.90;;;;;;5116341;27;20544;-71
2020/12/07 11:13:12;;;;;;;6.88;5.45;;;7.40;99.90;;;;;;5112986;27;20189;-71
2020/12/07 11:15:38;;;;;;;9.50;5.85;;;7.30;99.90;;;;;;5112295;27;20747;-73
2020/12/07 11:18:06;;;;;;;9.40;5.90;;;7.40;99.90;;;;;;5126883;27;20199;-73
2020/12/07 11:20:32;;;;;;;6.75;5.82;;;7.40;99.90;;;;;;5132973;27;20192;-73
2020/12/07 11:22:58;;;;;;;8.30;5.57;;;7.40;99.90;;;;;;5122298;27;20279;-73
2020/12/07 11:25:24;;;;;;;5.75;5.20;;;7.40;99.90;;;;;;5113032;28;20207;-72
2020/12/07 11:27:50;;;;;;;7.47;5.40;;;7.40;99.90;;;;;;5124067;27;20196;-73
2020/12/07 11:30:17;;;;;;;6.95;5.80;;;7.30;99.90;;;;;;5123540;27;20204;-73
2020/12/07 11:32:43;;;;;;;7.05;6.35;;;7.30;99.90;;;;;;5131195;27;20192;-73
2020/12/07 11:35:10;;;;;;;5.97;5.35;;;7.40;99.90;;;;;;5132841;27;20203;-72
2020/12/07 11:37:38;;;;;;;7.35;4.95;;;7.40;99.90;;;;;;5125199;27;20536;-73
2020/12/07 11:40:11;;;;;;;7.38;5.53;;;7.30;99.90;;;;;;5122016;27;20236;-73
2020/12/07 11:42:43;;;;;;;8.02;5.45;;;7.30;99.90;;;;;;5118358;28;20196;-74
2020/12/07 11:45:09;;;;;;;6.47;5.20;;;7.40;99.90;;;;;;5133044;27;20252;-72
2020/12/07 11:47:36;;;;;;;6.15;5.53;;;7.30;99.90;;;;;;5116620;27;20193;-71
2020/12/07 11:50:03;;;;;;;6.40;4.90;;;7.40;99.90;;;;;;5123129;27;20644;-74
2020/12/07 11:52:30;;;;;;;6.30;5.60;;;7.40;99.90;;;;;;5129566;27;20195;-74
2020/12/07 11:54:56;;;;;;;7.20;5.20;;;7.40;99.90;;;;;;5112281;28;20197;-74
2020/12/07 11:57:23;;;;;;;5.00;4.50;;;7.50;99.90;;;;;;5124936;28;20674;-76
2020/12/07 11:59:49;;;;;;;7.10;5.93;;;7.40;99.90;;;;;;5124855;28;20292;-77
2020/12/07 12:02:15;;;;;;;6.85;5.22;;;7.50;99.90;;;;;;5130265;28;20208;-77
2020/12/07 12:04:41;;;;;;;7.80;5.50;;;7.40;99.90;;;;;;5130574;27;20203;-77
2020/12/07 12:07:08;;;;;;;6.78;6.03;;;7.40;99.90;;;;;;5131464;27;20196;-77
2020/12/07 12:09:36;;;;;;;10.15;6.68;;;7.50;99.90;;;;;;5119708;27;20207;-70
2020/12/07 12:12:03;;;;;;;6.70;5.35;;;7.50;99.90;;;;;;5126687;28;20234;-72
2020/12/07 12:14:29;;;;;;;7.35;5.85;;;7.50;99.90;;;;;;5128586;27;20193;-74
2020/12/07 12:16:56;;;;;;;6.95;5.25;;;7.60;99.90;;;;;;5120459;28;20199;-74
2020/12/07 12:19:23;;;;;;;6.43;5.65;;;7.60;99.90;;;;;;5130819;27;20223;-74
2020/12/07 12:21:49;;;;;;;5.80;5.20;;;7.60;99.90;;;;;;5131027;27;20212;-73
2020/12/07 12:24:17;;;;;;;8.48;5.45;;;7.60;99.90;;;;;;5131573;27;20199;-73
2020/12/07 12:26:46;;;;;;;8.00;5.60;;;7.60;99.90;;;;;;5130858;27;20193;-73
2020/12/07 12:29:12;;;;;;;6.13;5.28;;;7.70;99.90;;;;;;5130126;27;20275;-73
2020/12/07 12:31:39;;;;;;;4.88;4.40;;;7.70;99.90;;;;;;5118392;27;20624;-73
2020/12/07 12:34:05;;;;;;;9.18;5.45;;;7.60;99.90;;;;;;5120987;28;20205;-74
2020/12/07 12:36:31;;;;;;;5.85;4.95;;;7.70;99.90;;;;;;5120249;28;20628;-74
2020/12/07 12:38:58;;;;;;;5.70;4.50;;;7.60;99.90;;;;;;5115555;28;20807;-73
2020/12/07 12:41:25;;;;;;;6.53;5.60;;;7.60;99.90;;;;;;5118060;27;20225;-73
2020/12/07 12:43:52;;;;;;;5.50;4.95;;;7.60;99.90;;;;;;5114624;28;20188;-73
2020/12/07 12:46:19;;;;;;;5.47;4.63;;;7.60;99.90;;;;;;5117087;28;20230;-71
2020/12/07 12:48:45;;;;;;;7.90;5.25;;;7.60;99.90;;;;;;5114077;27;20201;-73
2020/12/07 12:51:11;;;;;;;5.85;4.95;;;7.60;99.90;;;;;;5119327;27;20193;-72
2020/12/07 12:53:38;;;;;;;5.20;4.15;;;7.60;99.90;;;;;;5115008;27;20196;-72
2020/12/07 12:56:06;;;;;;;5.53;4.72;;;7.60;99.90;;;;;;5117551;27;20544;-72
2020/12/07 12:58:32;;;;;;;6.75;5.30;;;7.60;99.90;;;;;;5126138;27;20563;-73
2020/12/07 13:01:00;;;;;;;5.97;4.30;;;7.60;99.90;;;;;;5115119;27;20212;-73
2020/12/07 13:03:26;;;;;;;6.68;5.28;;;7.60;99.90;;;;;;5115001;28;20208;-72
2020/12/07 13:05:53;;;;;;;4.40;3.97;;;7.60;99.90;;;;;;5128660;27;20200;-72
2020/12/07 13:08:19;;;;;;;5.70;3.80;;;7.60;99.90;;;;;;5126055;27;20203;-72
2020/12/07 13:10:48;;;;;;;5.32;4.10;;;7.70;99.90;;;;;;5117457;27;20185;-73
2020/12/07 13:13:14;;;;;;;7.38;4.78;;;7.70;99.90;;;;;;5135828;27;20200;-72
2020/12/07 13:15:47;;;;;;;4.68;4.25;;;7.70;99.90;;;;;;5135518;27;20200;-71
2020/12/07 13:18:14;;;;;;;5.55;4.47;;;7.70;99.90;;;;;;5130402;27;20192;-72
2020/12/07 13:20:44;;;;;;;3.90;3.60;;;7.70;99.90;;;;;;5113793;28;20196;-71
2020/12/07 13:23:17;;;;;;;4.20;3.80;;;7.70;99.90;;;;;;5114201;28;20189;-72